Time;durP1;ratioP1;P1;durP2;ratioP2;P2;SDS_P1;SDS_P2;PMS_P1;PMS_P2;Temp;Humidity;BMP_temperature;BMP_pressure;BME280_temperature;BME280_humidity;BME280_pressure;Samples;Min_cycle;Max_cycle;Signal;HPM_P1;HPM_P2
2022/10/05 00:02:18;;;;;;;3.90;3.50;;;;;;;;;;4335434;33;20274;-88
2022/10/05 00:04:45;;;;;;;7.47;4.07;;;;;;;;;;4336517;33;20219;-88
2022/10/05 00:07:16;;;;;;;4.33;3.87;;;;;;;;;;4335951;33;20286;-88
2022/10/05 00:09:45;;;;;;;6.83;3.47;;;;;;;;;;4335515;33;20218;-88
2022/10/05 00:12:16;;;;;;;6.73;4.17;;;;;;;;;;4334495;33;20211;-87
2022/10/05 00:14:44;;;;;;;6.40;3.97;;;;;;;;;;4334850;33;20233;-88
2022/10/05 00:17:18;;;;;;;5.00;4.43;;;;;;;;;;4334694;33;20221;-88
2022/10/05 00:19:50;;;;;;;9.70;3.83;;;;;;;;;;4334588;33;20211;-88
2022/10/05 00:22:19;;;;;;;5.23;3.87;;;;;;;;;;4334490;33;20246;-89
2022/10/05 00:24:48;;;;;;;7.33;4.33;;;;;;;;;;4334001;33;20285;-88
2022/10/05 00:27:18;;;;;;;6.63;4.10;;;;;;;;;;4334026;33;20204;-87
2022/10/05 00:29:46;;;;;;;7.83;4.10;;;;;;;;;;4334236;33;20217;-87
2022/10/05 00:32:13;;;;;;;7.03;4.70;;;;;;;;;;4333964;33;20203;-88
2022/10/05 00:34:42;;;;;;;8.07;4.20;;;;;;;;;;4333867;33;20226;-88
2022/10/05 00:37:09;;;;;;;6.73;4.07;;;;;;;;;;4334084;33;20288;-88
2022/10/05 00:39:38;;;;;;;11.40;4.77;;;;;;;;;;4333797;33;20203;-87
2022/10/05 00:42:21;;;;;;;10.43;4.60;;;;;;;;;;4333582;33;20588;-87
2022/10/05 00:44:54;;;;;;;6.27;4.50;;;;;;;;;;4333856;33;20309;-89
2022/10/05 00:47:35;;;;;;;7.23;4.47;;;;;;;;;;4333821;33;20203;-88
2022/10/05 00:50:38;;;;;;;8.33;3.97;;;;;;;;;;4333464;33;20247;-87
2022/10/05 00:53:15;;;;;;;7.07;4.57;;;;;;;;;;4320427;33;20243;-88
2022/10/05 00:55:54;;;;;;;5.47;4.20;;;;;;;;;;4333253;33;20234;-88
2022/10/05 00:58:27;;;;;;;11.43;4.50;;;;;;;;;;4333767;33;20207;-88
2022/10/05 01:01:02;;;;;;;8.53;4.20;;;;;;;;;;4332994;33;20230;-88
2022/10/05 01:03:38;;;;;;;4.50;4.00;;;;;;;;;;4333539;33;20249;-88
2022/10/05 01:06:16;;;;;;;10.23;4.57;;;;;;;;;;4333283;33;20756;-89
2022/10/05 01:08:54;;;;;;;9.50;4.73;;;;;;;;;;4333735;33;20237;-88
2022/10/05 01:11:27;;;;;;;7.00;4.37;;;;;;;;;;4333377;33;20219;-89
2022/10/05 01:14:04;;;;;;;5.87;3.50;;;;;;;;;;4333354;33;20233;-88
2022/10/05 01:16:39;;;;;;;5.67;4.53;;;;;;;;;;4332851;33;20227;-87
2022/10/05 01:19:17;;;;;;;7.17;4.67;;;;;;;;;;4333424;33;20628;-88
2022/10/05 01:21:52;;;;;;;11.57;4.43;;;;;;;;;;4332814;33;20237;-88
2022/10/05 01:24:59;;;;;;;8.70;6.03;;;;;;;;;;4333240;33;20285;-88
2022/10/05 01:27:39;;;;;;;11.57;6.57;;;;;;;;;;4323040;33;20253;-88
2022/10/05 01:30:10;;;;;;;12.57;6.33;;;;;;;;;;4333026;33;20223;-88
2022/10/05 01:32:44;;;;;;;9.90;5.10;;;;;;;;;;4333317;33;20207;-88
2022/10/05 01:35:24;;;;;;;7.33;5.57;;;;;;;;;;4333157;33;20212;-87
2022/10/05 01:38:00;;;;;;;6.17;4.73;;;;;;;;;;4333278;33;20212;-89
2022/10/05 01:40:34;;;;;;;11.40;6.83;;;;;;;;;;4332897;33;20310;-87
2022/10/05 01:43:09;;;;;;;15.13;7.33;;;;;;;;;;4333140;33;20207;-87
2022/10/05 01:45:47;;;;;;;10.73;7.50;;;;;;;;;;4333014;33;20299;-88
2022/10/05 01:48:22;;;;;;;12.70;7.17;;;;;;;;;;4333126;33;20203;-88
2022/10/05 01:51:02;;;;;;;6.70;5.60;;;;;;;;;;4332511;33;20389;-88
2022/10/05 01:53:40;;;;;;;7.53;5.70;;;;;;;;;;4333046;33;20199;-87
2022/10/05 01:56:16;;;;;;;10.07;5.23;;;;;;;;;;4332940;33;20218;-87
2022/10/05 01:58:51;;;;;;;6.93;4.57;;;;;;;;;;4333205;33;20226;-87
2022/10/05 02:01:26;;;;;;;9.93;4.63;;;;;;;;;;4332385;33;20226;-87
2022/10/05 02:03:59;;;;;;;9.53;5.77;;;;;;;;;;4333034;33;20222;-88
2022/10/05 02:06:30;;;;;;;9.83;5.27;;;;;;;;;;4332727;33;20237;-87
2022/10/05 02:09:05;;;;;;;6.90;4.80;;;;;;;;;;4332771;33;20210;-88
2022/10/05 02:11:33;;;;;;;7.97;5.10;;;;;;;;;;4332279;33;20245;-87
2022/10/05 02:14:08;;;;;;;8.63;5.57;;;;;;;;;;4332248;33;20203;-87
2022/10/05 02:16:41;;;;;;;7.60;5.30;;;;;;;;;;4332669;33;20226;-87
2022/10/05 02:19:13;;;;;;;11.97;6.10;;;;;;;;;;4333010;33;20211;-88
2022/10/05 02:21:43;;;;;;;9.37;6.27;;;;;;;;;;4332540;33;20545;-87
2022/10/05 02:24:15;;;;;;;13.53;6.17;;;;;;;;;;4332157;33;20211;-87
2022/10/05 02:26:42;;;;;;;10.17;6.20;;;;;;;;;;4333403;33;20617;-87
2022/10/05 02:29:13;;;;;;;14.70;5.90;;;;;;;;;;4335816;33;20291;-86
2022/10/05 02:31:45;;;;;;;8.23;5.73;;;;;;;;;;4335565;33;20219;-87
2022/10/05 02:34:30;;;;;;;8.80;6.47;;;;;;;;;;4335950;33;20266;-87
2022/10/05 02:37:24;;;;;;;10.10;5.83;;;;;;;;;;4323855;33;20257;-88
2022/10/05 02:40:09;;;;;;;15.97;5.73;;;;;;;;;;4335647;33;20270;-87
2022/10/05 02:42:45;;;;;;;11.37;6.80;;;;;;;;;;4335580;33;20232;-87
2022/10/05 02:45:23;;;;;;;13.70;8.67;;;;;;;;;;4335247;33;20219;-87
2022/10/05 02:47:59;;;;;;;15.10;8.27;;;;;;;;;;4335581;33;20215;-88
2022/10/05 02:50:33;;;;;;;15.20;7.57;;;;;;;;;;4335217;33;20282;-87
2022/10/05 02:53:09;;;;;;;10.73;6.63;;;;;;;;;;4335756;33;20258;-87
2022/10/05 02:55:44;;;;;;;11.13;7.33;;;;;;;;;;4335384;33;20222;-87
2022/10/05 02:58:15;;;;;;;14.00;7.13;;;;;;;;;;4335628;33;20236;-88
2022/10/05 03:00:47;;;;;;;15.03;7.57;;;;;;;;;;4335034;33;20241;-87
2022/10/05 03:03:22;;;;;;;10.10;7.93;;;;;;;;;;4335325;33;20207;-87
2022/10/05 03:05:56;;;;;;;15.60;8.87;;;;;;;;;;4335391;33;20315;-87
2022/10/05 03:08:30;;;;;;;13.40;8.57;;;;;;;;;;4335533;33;20229;-87
2022/10/05 03:11:05;;;;;;;7.87;6.60;;;;;;;;;;4335148;33;20580;-86
2022/10/05 03:13:40;;;;;;;12.77;8.10;;;;;;;;;;4335986;33;20214;-87
2022/10/05 03:16:20;;;;;;;17.60;11.37;;;;;;;;;;4335557;33;20233;-85
2022/10/05 03:18:58;;;;;;;17.57;11.00;;;;;;;;;;4338159;33;20659;-87
2022/10/05 03:21:51;;;;;;;12.37;8.53;;;;;;;;;;4338308;33;20229;-85
2022/10/05 03:24:36;;;;;;;19.00;7.60;;;;;;;;;;4339022;33;20601;-85
2022/10/05 03:27:10;;;;;;;11.33;6.40;;;;;;;;;;4340743;33;20659;-85
2022/10/05 03:29:44;;;;;;;7.83;5.10;;;;;;;;;;4343679;33;20286;-85
2022/10/05 03:32:21;;;;;;;9.67;5.03;;;;;;;;;;4341189;33;20302;-85
2022/10/05 03:34:52;;;;;;;7.20;4.40;;;;;;;;;;4342371;33;20210;-85
2022/10/05 03:37:27;;;;;;;6.57;4.40;;;;;;;;;;4341538;33;20267;-85
2022/10/05 03:40:02;;;;;;;7.63;4.30;;;;;;;;;;4337638;33;20214;-87
2022/10/05 03:42:37;;;;;;;9.63;4.43;;;;;;;;;;4337232;33;20241;-87
2022/10/05 03:45:18;;;;;;;4.87;4.37;;;;;;;;;;4339045;33;20303;-88
2022/10/05 03:47:55;;;;;;;14.63;4.57;;;;;;;;;;4339936;33;20207;-87
2022/10/05 03:50:31;;;;;;;6.47;4.83;;;;;;;;;;4334905;33;20223;-87
2022/10/05 03:53:02;;;;;;;6.87;4.67;;;;;;;;;;4335356;33;20237;-88
2022/10/05 03:55:35;;;;;;;8.43;5.70;;;;;;;;;;4335008;33;20316;-87
2022/10/05 03:58:07;;;;;;;9.20;5.77;;;;;;;;;;4334982;33;20292;-88
2022/10/05 04:00:36;;;;;;;29.77;7.63;;;;;;;;;;4334791;33;20231;-88
2022/10/05 04:03:12;;;;;;;11.50;7.40;;;;;;;;;;4335168;33;20203;-87
2022/10/05 04:05:46;;;;;;;17.43;10.07;;;;;;;;;;4335249;33;20222;-87
2022/10/05 04:08:23;;;;;;;15.40;7.77;;;;;;;;;;4334710;33;20262;-87
2022/10/05 04:10:52;;;;;;;13.90;7.73;;;;;;;;;;4334433;33;20283;-87
2022/10/05 04:13:25;;;;;;;9.93;7.33;;;;;;;;;;4334020;33;20254;-87
2022/10/05 04:15:59;;;;;;;14.30;8.17;;;;;;;;;;4334320;33;20212;-87
2022/10/05 04:18:32;;;;;;;15.07;8.10;;;;;;;;;;4334440;33;20225;-87
2022/10/05 04:21:03;;;;;;;15.47;10.00;;;;;;;;;;4334253;33;20223;-88
2022/10/05 04:23:39;;;;;;;16.50;11.20;;;;;;;;;;4334349;33;20692;-87
2022/10/05 04:26:10;;;;;;;16.20;11.33;;;;;;;;;;4334250;33;20230;-87
2022/10/05 04:28:45;;;;;;;25.17;10.87;;;;;;;;;;4334109;33;20652;-88
2022/10/05 04:31:20;;;;;;;17.23;11.43;;;;;;;;;;4334037;33;20218;-88
2022/10/05 04:34:01;;;;;;;19.20;12.17;;;;;;;;;;4334044;33;20214;-87
2022/10/05 04:36:33;;;;;;;28.43;13.10;;;;;;;;;;4333694;33;20219;-87
2022/10/05 04:39:16;;;;;;;19.83;12.10;;;;;;;;;;4334122;33;20215;-88
2022/10/05 04:41:57;;;;;;;20.03;10.80;;;;;;;;;;4333413;33;20223;-86
2022/10/05 04:44:39;;;;;;;18.73;11.47;;;;;;;;;;4333863;33;20221;-87
2022/10/05 04:47:22;;;;;;;31.83;12.27;;;;;;;;;;4332957;33;20236;-87
2022/10/05 04:50:23;;;;;;;18.53;11.37;;;;;;;;;;4332792;33;20203;-87
2022/10/05 04:53:02;;;;;;;32.40;11.70;;;;;;;;;;4333210;33;20299;-87
2022/10/05 04:55:36;;;;;;;22.20;11.37;;;;;;;;;;4333472;33;20249;-87
2022/10/05 04:58:11;;;;;;;25.60;12.80;;;;;;;;;;4333619;33;20208;-87
2022/10/05 05:00:49;;;;;;;26.27;11.53;;;;;;;;;;4332742;33;20244;-87
2022/10/05 05:03:35;;;;;;;22.93;12.70;;;;;;;;;;4333128;33;20356;-88
2022/10/05 05:06:13;;;;;;;22.70;11.90;;;;;;;;;;4332870;33;20298;-88
2022/10/05 05:09:00;;;;;;;25.17;14.57;;;;;;;;;;4331810;33;20260;-88
2022/10/05 05:11:34;;;;;;;31.93;18.17;;;;;;;;;;4332773;33;20224;-88
2022/10/05 05:14:19;;;;;;;32.20;17.00;;;;;;;;;;4333358;33;20208;-87
2022/10/05 05:16:53;;;;;;;26.97;14.13;;;;;;;;;;4333226;33;20223;-87
2022/10/05 05:19:33;;;;;;;20.43;12.57;;;;;;;;;;4333713;33;20307;-89
2022/10/05 05:22:06;;;;;;;23.40;9.03;;;;;;;;;;4332970;33;20278;-88
2022/10/05 05:24:40;;;;;;;33.43;14.20;;;;;;;;;;4333750;33;20213;-87
2022/10/05 05:27:33;;;;;;;51.57;27.77;;;;;;;;;;4333178;33;20221;-87
2022/10/05 05:30:04;;;;;;;50.60;25.17;;;;;;;;;;4333259;33;20685;-87
2022/10/05 05:32:40;;;;;;;25.03;15.93;;;;;;;;;;4332674;33;20222;-89
2022/10/05 05:35:25;;;;;;;35.67;18.20;;;;;;;;;;4333137;33;20237;-89
2022/10/05 05:38:03;;;;;;;31.50;16.27;;;;;;;;;;4333355;33;20211;-89
2022/10/05 05:40:34;;;;;;;87.27;16.73;;;;;;;;;;4332419;33;20230;-88
2022/10/05 05:43:06;;;;;;;21.77;13.83;;;;;;;;;;4332840;33;20225;-87
2022/10/05 05:45:40;;;;;;;30.30;13.43;;;;;;;;;;4332513;33;20215;-88
2022/10/05 05:48:16;;;;;;;22.37;14.87;;;;;;;;;;4332834;33;20207;-88
2022/10/05 05:50:53;;;;;;;20.87;14.00;;;;;;;;;;4332416;33;20738;-87
2022/10/05 05:53:29;;;;;;;22.07;14.27;;;;;;;;;;4332566;33;20293;-87
2022/10/05 05:56:01;;;;;;;22.90;12.77;;;;;;;;;;4332200;33;20285;-88
2022/10/05 05:58:33;;;;;;;14.77;11.17;;;;;;;;;;4332901;33;20614;-88
2022/10/05 06:01:05;;;;;;;14.00;9.20;;;;;;;;;;4331804;33;20243;-89
2022/10/05 06:03:37;;;;;;;19.27;9.27;;;;;;;;;;4332645;33;20241;-88
2022/10/05 06:06:09;;;;;;;16.03;8.70;;;;;;;;;;4332832;33;20623;-86
2022/10/05 06:08:41;;;;;;;19.63;10.87;;;;;;;;;;4332540;33;20203;-88
2022/10/05 06:11:16;;;;;;;28.50;16.40;;;;;;;;;;4331671;33;20340;-89
2022/10/05 06:13:43;;;;;;;15.73;10.47;;;;;;;;;;4332883;33;20229;-87
2022/10/05 06:16:18;;;;;;;29.00;12.17;;;;;;;;;;4331956;33;20348;-86
2022/10/05 06:18:50;;;;;;;21.90;13.03;;;;;;;;;;4332439;33;20229;-87
2022/10/05 06:21:22;;;;;;;24.83;12.73;;;;;;;;;;4332548;33;20220;-87
2022/10/05 06:23:54;;;;;;;15.87;12.73;;;;;;;;;;4332079;33;20210;-87
2022/10/05 06:27:00;;;;;;;22.60;12.97;;;;;;;;;;4331706;33;20222;-87
2022/10/05 06:29:40;;;;;;;20.30;13.73;;;;;;;;;;4332521;33;20203;-87
2022/10/05 06:32:21;;;;;;;25.30;14.47;;;;;;;;;;4332119;33;20548;-88
2022/10/05 06:34:56;;;;;;;22.70;12.53;;;;;;;;;;4332429;33;20651;-89
2022/10/05 06:37:42;;;;;;;26.00;10.60;;;;;;;;;;4332696;33;20261;-88
2022/10/05 06:40:19;;;;;;;15.80;9.13;;;;;;;;;;4332670;33;20407;-88
2022/10/05 06:42:56;;;;;;;15.67;11.57;;;;;;;;;;4332295;33;20236;-87
2022/10/05 06:45:31;;;;;;;15.13;9.40;;;;;;;;;;4332530;33;20207;-88
2022/10/05 06:48:05;;;;;;;17.83;9.37;;;;;;;;;;4332972;33;20223;-87
2022/10/05 06:50:38;;;;;;;13.37;10.27;;;;;;;;;;4332141;33;20228;-87
2022/10/05 06:53:20;;;;;;;19.73;9.80;;;;;;;;;;4331597;33;20215;-87
2022/10/05 06:55:56;;;;;;;20.47;11.13;;;;;;;;;;4332932;33;20501;-87
2022/10/05 06:58:45;;;;;;;11.07;9.70;;;;;;;;;;4331943;33;20309;-87
2022/10/05 07:01:19;;;;;;;14.87;9.47;;;;;;;;;;4331721;33;20286;-88
2022/10/05 07:04:01;;;;;;;15.03;9.83;;;;;;;;;;4332168;33;20210;-89
2022/10/05 07:06:35;;;;;;;14.93;9.03;;;;;;;;;;4332052;33;20213;-88
2022/10/05 07:09:20;;;;;;;13.13;8.03;;;;;;;;;;4332781;33;20593;-90
2022/10/05 07:12:08;;;;;;;28.90;7.43;;;;;;;;;;4331863;33;20240;-87
2022/10/05 07:14:58;;;;;;;14.77;7.43;;;;;;;;;;4334890;33;20207;-88
2022/10/05 07:17:34;;;;;;;11.67;7.57;;;;;;;;;;4334395;33;20219;-89
2022/10/05 07:20:13;;;;;;;10.13;6.47;;;;;;;;;;4334495;33;20602;-89
2022/10/05 07:23:14;;;;;;;10.83;6.70;;;;;;;;;;4333952;33;20639;-88
2022/10/05 07:25:46;;;;;;;9.10;6.67;;;;;;;;;;4321633;33;20254;-88
2022/10/05 07:28:23;;;;;;;14.57;7.07;;;;;;;;;;4334205;33;20215;-89
2022/10/05 07:30:56;;;;;;;8.50;6.83;;;;;;;;;;4334687;33;20307;-89
2022/10/05 07:33:28;;;;;;;16.20;7.53;;;;;;;;;;4334801;33;20219;-87
2022/10/05 07:38:58;;;;;;;11.47;7.80;;;;;;;;;;4334442;33;20234;-88
2022/10/05 07:41:32;;;;;;;12.17;7.87;;;;;;;;;;4334421;33;20221;-89
2022/10/05 07:44:11;;;;;;;13.90;8.37;;;;;;;;;;4333907;33;20223;-88
2022/10/05 07:46:51;;;;;;;32.93;10.83;;;;;;;;;;4334433;33;20226;-88
2022/10/05 07:49:27;;;;;;;19.30;8.97;;;;;;;;;;4333948;33;20207;-87
2022/10/05 07:51:57;;;;;;;19.37;9.77;;;;;;;;;;4334153;33;20625;-88
2022/10/05 07:54:28;;;;;;;15.47;9.17;;;;;;;;;;4334398;33;20229;-89
2022/10/05 07:57:02;;;;;;;15.10;8.37;;;;;;;;;;4333659;33;20612;-89
2022/10/05 07:59:38;;;;;;;19.13;7.93;;;;;;;;;;4334703;33;20248;-90
2022/10/05 08:02:18;;;;;;;13.80;7.50;;;;;;;;;;4334165;33;20215;-87
2022/10/05 08:04:53;;;;;;;12.70;8.03;;;;;;;;;;4334725;33;20203;-88
2022/10/05 08:07:20;;;;;;;18.87;7.67;;;;;;;;;;4334098;33;20280;-87
2022/10/05 08:09:54;;;;;;;10.47;7.60;;;;;;;;;;4334301;33;20211;-88
2022/10/05 08:12:30;;;;;;;26.57;7.90;;;;;;;;;;4334390;33;20219;-87
2022/10/05 08:15:05;;;;;;;14.30;8.77;;;;;;;;;;4333974;33;20221;-88
2022/10/05 08:17:44;;;;;;;12.87;7.57;;;;;;;;;;4334224;33;20753;-87
2022/10/05 08:20:34;;;;;;;10.37;6.07;;;;;;;;;;4333916;33;20528;-89
2022/10/05 08:23:09;;;;;;;13.23;6.57;;;;;;;;;;4324141;33;20380;-87
2022/10/05 08:25:44;;;;;;;7.80;5.17;;;;;;;;;;4335925;33;20203;-87
2022/10/05 08:28:20;;;;;;;5.43;4.10;;;;;;;;;;4334840;33;20289;-88
2022/10/05 08:31:01;;;;;;;7.20;5.57;;;;;;;;;;4335454;33;20267;-87
2022/10/05 08:33:34;;;;;;;7.23;4.40;;;;;;;;;;4334778;33;20250;-88
2022/10/05 08:36:09;;;;;;;11.27;5.00;;;;;;;;;;4335238;33;20351;-87
2022/10/05 08:38:36;;;;;;;7.57;4.70;;;;;;;;;;4335484;33;20671;-87
2022/10/05 08:41:36;;;;;;;12.40;6.77;;;;;;;;;;4334349;33;20211;-88
2022/10/05 08:44:22;;;;;;;17.40;5.77;;;;;;;;;;4333270;33;20223;-88
2022/10/05 08:47:10;;;;;;;8.70;3.97;;;;;;;;;;4332353;33;20568;-89
2022/10/05 08:50:05;;;;;;;6.37;3.47;;;;;;;;;;4334590;33;20227;-88
2022/10/05 08:52:40;;;;;;;3.17;2.30;;;;;;;;;;4331338;33;20329;-88
2022/10/05 08:55:33;;;;;;;7.07;2.47;;;;;;;;;;4333332;33;20571;-89
2022/10/05 08:58:29;;;;;;;4.03;2.30;;;;;;;;;;4332818;33;20227;-88
2022/10/05 09:01:01;;;;;;;8.33;3.00;;;;;;;;;;4332607;33;20229;-89
2022/10/05 09:03:59;;;;;;;4.57;2.37;;;;;;;;;;4332945;33;20215;-89
2022/10/05 09:06:49;;;;;;;9.93;2.30;;;;;;;;;;4326616;33;20267;-87
2022/10/05 09:09:43;;;;;;;4.80;2.43;;;;;;;;;;4332392;33;20585;-91
2022/10/05 09:12:49;;;;;;;11.53;4.53;;;;;;;;;;4304764;33;20243;-89
2022/10/05 09:15:33;;;;;;;9.73;3.67;;;;;;;;;;4314567;33;20239;-88
2022/10/05 09:18:29;;;;;;;9.10;2.90;;;;;;;;;;4333406;33;20223;-90
2022/10/05 09:21:02;;;;;;;5.30;2.30;;;;;;;;;;4333102;33;20283;-90
2022/10/05 09:23:38;;;;;;;6.13;2.67;;;;;;;;;;4333218;33;20277;-90
2022/10/05 09:26:12;;;;;;;8.13;3.17;;;;;;;;;;4333638;33;20221;-90
2022/10/05 09:28:58;;;;;;;7.70;2.50;;;;;;;;;;4332413;33;20215;-91
2022/10/05 09:31:46;;;;;;;5.13;2.10;;;;;;;;;;4332717;33;20203;-89
2022/10/05 09:34:39;;;;;;;4.63;1.80;;;;;;;;;;4333472;33;20270;-90
2022/10/05 09:37:25;;;;;;;3.47;2.17;;;;;;;;;;4332564;33;20223;-89
2022/10/05 09:40:34;;;;;;;2.63;1.83;;;;;;;;;;4332576;33;20293;-90
2022/10/05 09:43:37;;;;;;;8.27;1.95;;;;;;;;;;4308227;33;20286;-90
2022/10/05 09:46:34;;;;;;;7.80;3.37;;;;;;;;;;4307003;33;20215;-90
2022/10/05 09:49:41;;;;;;;8.93;3.33;;;;;;;;;;4331604;33;20211;-90
2022/10/05 09:52:47;;;;;;;3.75;2.30;;;;;;;;;;4314293;33;20238;-90
2022/10/05 09:55:41;;;;;;;5.82;1.80;;;;;;;;;;4306708;33;20223;-90
2022/10/05 09:58:32;;;;;;;14.43;4.90;;;;;;;;;;4300252;33;20245;-92
2022/10/05 10:01:30;;;;;;;16.70;5.32;;;;;;;;;;4331855;33;20215;-90
2022/10/05 10:04:14;;;;;;;5.00;2.65;;;;;;;;;;4331454;33;20243;-91
2022/10/05 10:07:12;;;;;;;1.60;1.37;;;;;;;;;;4332188;33;20313;-90
2022/10/05 10:09:59;;;;;;;4.15;1.70;;;;;;;;;;4329067;33;20238;-90
2022/10/05 10:12:35;;;;;;;2.27;1.43;;;;;;;;;;4332453;33;20218;-90
2022/10/05 10:15:47;;;;;;;2.65;1.42;;;;;;;;;;4332356;33;20329;-90
2022/10/05 10:18:40;;;;;;;4.35;1.90;;;;;;;;;;4331965;33;20234;-89
2022/10/05 10:21:32;;;;;;;4.85;1.98;;;;;;;;;;4299220;33;20222;-89
2022/10/05 10:24:10;;;;;;;3.28;1.40;;;;;;;;;;4292022;33;20235;-90
2022/10/05 10:27:04;;;;;;;5.10;1.80;;;;;;;;;;4332054;33;20219;-90
2022/10/05 10:29:55;;;;;;;4.30;2.12;;;;;;;;;;4332125;33;20262;-89
2022/10/05 10:33:04;;;;;;;2.50;1.60;;;;;;;;;;4331891;33;20303;-89
2022/10/05 10:35:33;;;;;;;9.15;4.05;;;;;;;;;;4332642;33;20258;-90
2022/10/05 10:38:29;;;;;;;8.90;3.78;;;;;;;;;;4331605;33;20215;-90
2022/10/05 10:41:35;;;;;;;5.57;3.08;;;;;;;;;;4332257;33;20651;-90
2022/10/05 10:44:35;;;;;;;3.33;1.90;;;;;;;;;;4314315;33;20773;-89
2022/10/05 10:47:24;;;;;;;6.70;2.97;;;;;;;;;;4319831;33;20239;-91
2022/10/05 10:50:11;;;;;;;5.65;2.25;;;;;;;;;;4334898;33;20199;-90
2022/10/05 10:52:52;;;;;;;7.82;1.80;;;;;;;;;;4335059;33;20235;-89
2022/10/05 10:55:30;;;;;;;1.33;1.20;;;;;;;;;;4334694;33;20273;-89
2022/10/05 10:58:34;;;;;;;75.97;4.15;;;;;;;;;;4335176;33;20648;-89
2022/10/05 11:01:16;;;;;;;2.67;1.60;;;;;;;;;;4324412;33;20235;-89
2022/10/05 11:03:59;;;;;;;5.65;1.55;;;;;;;;;;4336634;33;20270;-89
2022/10/05 11:07:02;;;;;;;4.55;1.45;;;;;;;;;;4335812;33;20211;-91
2022/10/05 11:09:58;;;;;;;2.95;1.45;;;;;;;;;;4304214;33;20264;-90
2022/10/05 11:13:00;;;;;;;13.27;1.65;;;;;;;;;;4298725;33;20253;-89
2022/10/05 11:15:56;;;;;;;6.87;1.50;;;;;;;;;;4286567;33;20230;-90
2022/10/05 11:18:37;;;;;;;2.20;1.17;;;;;;;;;;4335474;33;20309;-89
2022/10/05 11:21:30;;;;;;;2.80;1.45;;;;;;;;;;4335406;33;20211;-91
2022/10/05 11:24:49;;;;;;;2.60;1.23;;;;;;;;;;4334052;33;20289;-90
2022/10/05 11:27:48;;;;;;;3.62;1.30;;;;;;;;;;4276053;33;20237;-90
2022/10/05 11:30:43;;;;;;;6.12;1.40;;;;;;;;;;4334821;33;20211;-90
2022/10/05 11:34:03;;;;;;;4.62;1.60;;;;;;;;;;4334803;33;20293;-90
2022/10/05 11:37:05;;;;;;;6.47;1.65;;;;;;;;;;4335258;33;20207;-90
2022/10/05 11:39:37;;;;;;;2.37;1.27;;;;;;;;;;4334959;33;20690;-90
2022/10/05 11:42:49;;;;;;;4.75;1.30;;;;;;;;;;4334585;33;20285;-90
2022/10/05 11:45:23;;;;;;;1.25;1.05;;;;;;;;;;4315852;33;20223;-89
2022/10/05 11:48:20;;;;;;;5.65;1.62;;;;;;;;;;4334672;33;20286;-89
2022/10/05 11:51:01;;;;;;;1.48;1.10;;;;;;;;;;4334085;33;20703;-90
2022/10/05 11:53:38;;;;;;;5.12;2.33;;;;;;;;;;4333794;33;20235;-89
2022/10/05 11:56:14;;;;;;;8.18;2.00;;;;;;;;;;4334222;33;20246;-91
2022/10/05 11:58:47;;;;;;;3.45;1.40;;;;;;;;;;4333598;33;20244;-90
2022/10/05 12:01:20;;;;;;;2.10;1.40;;;;;;;;;;4333742;33;20237;-90
2022/10/05 12:03:55;;;;;;;3.25;1.62;;;;;;;;;;4334465;33;20234;-89
2022/10/05 12:06:37;;;;;;;7.15;1.52;;;;;;;;;;4334373;33;20278;-90
2022/10/05 12:09:16;;;;;;;2.42;1.60;;;;;;;;;;4333646;33;20242;-89
2022/10/05 12:11:54;;;;;;;4.53;1.70;;;;;;;;;;4334073;33;20206;-90
2022/10/05 12:14:32;;;;;;;1.62;1.30;;;;;;;;;;4334086;33;20190;-90
2022/10/05 12:17:10;;;;;;;3.00;1.60;;;;;;;;;;4334006;33;20225;-90
2022/10/05 12:19:42;;;;;;;3.85;1.40;;;;;;;;;;4334401;33;20203;-90
2022/10/05 12:22:17;;;;;;;2.25;1.35;;;;;;;;;;4333930;33;20578;-90
2022/10/05 12:25:20;;;;;;;2.67;1.50;;;;;;;;;;4334214;33;20210;-91
2022/10/05 12:27:51;;;;;;;2.22;1.48;;;;;;;;;;4334107;33;20243;-91
2022/10/05 12:30:26;;;;;;;4.30;1.45;;;;;;;;;;4334112;33;20233;-91
2022/10/05 12:33:02;;;;;;;1.65;1.40;;;;;;;;;;4333846;33;20309;-90
2022/10/05 12:35:33;;;;;;;4.05;1.83;;;;;;;;;;4333875;33;20207;-91
2022/10/05 12:38:10;;;;;;;2.17;1.42;;;;;;;;;;4333224;33;20751;-91
2022/10/05 12:40:45;;;;;;;3.60;1.60;;;;;;;;;;4333878;33;20695;-91
2022/10/05 12:43:19;;;;;;;4.82;1.80;;;;;;;;;;4333826;33;20245;-89
2022/10/05 12:45:58;;;;;;;3.55;1.83;;;;;;;;;;4333918;33;20203;-90
2022/10/05 12:48:44;;;;;;;3.35;1.58;;;;;;;;;;4333925;33;20214;-89
2022/10/05 12:51:17;;;;;;;3.50;1.40;;;;;;;;;;4333845;33;20213;-90
2022/10/05 12:53:51;;;;;;;3.22;1.25;;;;;;;;;;4335030;33;20530;-90
2022/10/05 12:56:30;;;;;;;1.37;1.00;;;;;;;;;;4336154;33;20195;-90
2022/10/05 12:59:08;;;;;;;2.25;1.35;;;;;;;;;;4336998;33;20277;-90
2022/10/05 13:01:41;;;;;;;6.07;1.12;;;;;;;;;;4333790;33;20218;-89
2022/10/05 13:04:21;;;;;;;3.03;2.03;;;;;;;;;;4336442;33;20233;-90
2022/10/05 13:07:04;;;;;;;4.82;1.30;;;;;;;;;;4333372;33;20225;-90
2022/10/05 13:09:40;;;;;;;2.65;1.35;;;;;;;;;;4333264;33;20232;-90
2022/10/05 13:12:16;;;;;;;6.10;1.55;;;;;;;;;;4333685;33;20226;-90
2022/10/05 13:14:54;;;;;;;1.75;1.10;;;;;;;;;;4333448;33;20720;-89
2022/10/05 13:17:29;;;;;;;1.27;1.10;;;;;;;;;;4333269;33;20237;-90
2022/10/05 13:20:01;;;;;;;3.80;1.40;;;;;;;;;;4333142;33;20228;-89
2022/10/05 13:22:35;;;;;;;2.12;1.45;;;;;;;;;;4333307;33;20310;-88
2022/10/05 13:25:19;;;;;;;3.03;1.48;;;;;;;;;;4334786;33;20230;-88
2022/10/05 13:28:08;;;;;;;1.98;1.33;;;;;;;;;;4333811;33;20223;-90
2022/10/05 13:30:36;;;;;;;3.40;1.85;;;;;;;;;;4334157;33;20203;-88
2022/10/05 13:33:13;;;;;;;1.33;1.12;;;;;;;;;;4332662;33;20293;-90
2022/10/05 13:35:46;;;;;;;4.75;1.30;;;;;;;;;;4332846;33;20225;-90
2022/10/05 13:38:25;;;;;;;1.17;0.93;;;;;;;;;;4332412;33;20302;-90
2022/10/05 13:41:03;;;;;;;3.50;1.90;;;;;;;;;;4332815;33;20219;-90
2022/10/05 13:43:39;;;;;;;4.72;1.42;;;;;;;;;;4332937;33;20241;-89
2022/10/05 13:46:12;;;;;;;1.70;1.30;;;;;;;;;;4332723;33;20614;-88
2022/10/05 13:48:49;;;;;;;2.33;1.25;;;;;;;;;;4332486;33;20249;-89
2022/10/05 13:51:19;;;;;;;2.20;1.40;;;;;;;;;;4333127;33;20629;-88
2022/10/05 13:53:54;;;;;;;3.00;1.48;;;;;;;;;;4332507;33;20219;-89
2022/10/05 13:56:24;;;;;;;4.00;1.37;;;;;;;;;;4333128;33;20246;-89
2022/10/05 13:59:03;;;;;;;2.67;1.75;;;;;;;;;;4332458;33;20226;-89
2022/10/05 14:01:41;;;;;;;1.92;1.00;;;;;;;;;;4333033;33;20241;-88
2022/10/05 14:04:16;;;;;;;1.87;1.35;;;;;;;;;;4333451;33;20199;-89
2022/10/05 14:06:44;;;;;;;2.92;1.62;;;;;;;;;;4333082;33;20680;-89
2022/10/05 14:09:14;;;;;;;6.68;2.03;;;;;;;;;;4337708;33;20232;-89
2022/10/05 14:11:49;;;;;;;4.68;3.53;;;;;;;;;;4340730;33;20258;-88
2022/10/05 14:14:27;;;;;;;2.55;2.30;;;;;;;;;;4341068;33;20282;-89
2022/10/05 14:16:55;;;;;;;5.82;3.05;;;;;;;;;;4338852;33;20273;-89
2022/10/05 14:19:26;;;;;;;4.85;2.97;;;;;;;;;;4347984;33;20247;-88
2022/10/05 14:21:59;;;;;;;4.35;3.10;;;;;;;;;;4350161;33;20267;-88
2022/10/05 14:24:29;;;;;;;8.38;2.20;;;;;;;;;;4351555;33;20195;-89
2022/10/05 14:26:58;;;;;;;1.90;1.30;;;;;;;;;;4351173;33;20207;-89
2022/10/05 14:29:35;;;;;;;3.05;1.48;;;;;;;;;;4342013;33;20206;-89
2022/10/05 14:32:11;;;;;;;1.10;1.00;;;;;;;;;;4338465;33;20357;-89
2022/10/05 14:34:43;;;;;;;8.38;3.10;;;;;;;;;;4337118;33;20625;-89
2022/10/05 14:37:18;;;;;;;1.92;1.10;;;;;;;;;;4336487;33;20585;-89
2022/10/05 14:39:48;;;;;;;7.18;2.60;;;;;;;;;;4336264;33;20241;-90
2022/10/05 14:42:18;;;;;;;11.70;3.45;;;;;;;;;;4336878;33;20715;-88
2022/10/05 14:44:58;;;;;;;6.62;4.22;;;;;;;;;;4337352;33;20203;-88
2022/10/05 14:47:29;;;;;;;6.62;2.35;;;;;;;;;;4338092;33;20207;-89
2022/10/05 14:50:12;;;;;;;13.32;5.28;;;;;;;;;;4337720;33;20581;-90
2022/10/05 14:52:40;;;;;;;10.90;5.12;;;;;;;;;;4336397;33;20313;-89
2022/10/05 14:55:26;;;;;;;7.62;3.72;;;;;;;;;;4335915;33;20218;-89
2022/10/05 14:58:05;;;;;;;4.55;2.70;;;;;;;;;;4336042;33;20335;-89
2022/10/05 15:00:42;;;;;;;3.55;2.17;;;;;;;;;;4335423;33;20226;-91
2022/10/05 15:03:26;;;;;;;13.98;4.70;;;;;;;;;;4334902;33;20232;-89
2022/10/05 15:05:57;;;;;;;6.20;2.97;;;;;;;;;;4335274;33;20195;-89
2022/10/05 15:08:40;;;;;;;5.43;3.00;;;;;;;;;;4335220;33;20299;-88
2022/10/05 15:11:10;;;;;;;3.62;1.67;;;;;;;;;;4335492;33;20638;-89
2022/10/05 15:13:40;;;;;;;3.53;1.67;;;;;;;;;;4334447;33;20228;-89
2022/10/05 15:16:17;;;;;;;32.13;3.90;;;;;;;;;;4335067;33;20230;-89
2022/10/05 15:18:55;;;;;;;12.65;2.87;;;;;;;;;;4334569;33;20250;-90
2022/10/05 15:21:46;;;;;;;5.20;2.42;;;;;;;;;;4335002;33;20230;-88
2022/10/05 15:24:18;;;;;;;16.77;3.33;;;;;;;;;;4334791;33;20511;-88
2022/10/05 15:26:50;;;;;;;8.57;2.55;;;;;;;;;;4334906;33;20208;-89
2022/10/05 15:29:45;;;;;;;8.00;3.30;;;;;;;;;;4335211;33;20221;-90
2022/10/05 15:32:24;;;;;;;8.85;3.90;;;;;;;;;;4332711;33;20695;-89
2022/10/05 15:35:02;;;;;;;8.82;4.05;;;;;;;;;;4334418;33;20233;-89
2022/10/05 15:37:36;;;;;;;7.55;4.15;;;;;;;;;;4334694;33;20613;-88
2022/10/05 15:40:06;;;;;;;6.32;3.47;;;;;;;;;;4334576;33;20199;-89
2022/10/05 15:42:37;;;;;;;5.50;3.85;;;;;;;;;;4334554;33;20605;-89
2022/10/05 15:45:17;;;;;;;9.18;3.97;;;;;;;;;;4334377;33;20212;-89
2022/10/05 15:47:53;;;;;;;9.77;4.28;;;;;;;;;;4334797;33;20227;-89
2022/10/05 15:50:23;;;;;;;7.97;5.43;;;;;;;;;;4334181;33;20265;-89